Time;durP1;ratioP1;P1;durP2;ratioP2;P2;SDS_P1;SDS_P2;PMS_P1;PMS_P2;Temp;Humidity;BMP_temperature;BMP_pressure;BME280_temperature;BME280_humidity;BME280_pressure;Samples;Min_cycle;Max_cycle;Signal;HPM_P1;HPM_P2
2022/06/05 00:02:38;;;;;;;13.73;6.43;;;21.60;74.40;;;;;;7373496;19;20007;-79
2022/06/05 00:05:15;;;;;;;13.05;7.13;;;21.60;74.60;;;;;;7374116;19;20031;-79
2022/06/05 00:07:51;;;;;;;10.27;7.07;;;21.60;74.80;;;;;;7374689;19;20039;-80
2022/06/05 00:10:24;;;;;;;13.48;6.38;;;21.60;74.40;;;;;;7370381;19;20490;-79
2022/06/05 00:13:06;;;;;;;16.45;6.68;;;21.60;74.20;;;;;;7394718;19;20121;-79
2022/06/05 00:15:35;;;;;;;10.25;6.60;;;21.50;74.50;;;;;;7371829;19;20035;-79
2022/06/05 00:18:05;;;;;;;9.52;7.35;;;21.60;74.10;;;;;;7370113;19;20042;-80
2022/06/05 00:20:34;;;;;;;10.20;6.60;;;21.60;73.80;;;;;;7375147;19;20022;-79
2022/06/05 00:23:02;;;;;;;12.50;7.47;;;21.50;73.30;;;;;;7370990;19;20025;-80
2022/06/05 00:25:40;;;;;;;12.00;6.88;;;21.50;73.20;;;;;;7375041;19;20014;-78
2022/06/05 00:28:20;;;;;;;12.00;7.97;;;21.40;73.60;;;;;;7369872;19;20027;-80
2022/06/05 00:30:55;;;;;;;9.43;6.43;;;21.40;73.50;;;;;;7393033;19;20018;-79
2022/06/05 00:33:32;;;;;;;10.75;6.25;;;21.40;73.60;;;;;;7375738;19;20660;-80
2022/06/05 00:36:06;;;;;;;8.25;5.20;;;21.30;73.70;;;;;;7376119;19;20050;-80
2022/06/05 00:38:42;;;;;;;9.82;6.60;;;21.40;74.10;;;;;;7377342;19;20040;-80
2022/06/05 00:41:27;;;;;;;9.75;6.22;;;21.40;73.90;;;;;;7375621;19;20066;-79
2022/06/05 00:44:02;;;;;;;10.27;6.25;;;21.30;74.00;;;;;;7375708;19;20018;-79
2022/06/05 00:46:32;;;;;;;10.75;6.60;;;21.40;73.90;;;;;;7374002;19;20034;-79
2022/06/05 00:49:02;;;;;;;11.77;6.85;;;21.40;73.90;;;;;;7397290;19;20062;-81
2022/06/05 00:51:35;;;;;;;15.27;7.35;;;21.40;73.90;;;;;;7370905;19;20684;-83
2022/06/05 00:54:06;;;;;;;10.73;7.10;;;21.40;74.10;;;;;;7371940;19;20018;-81
2022/06/05 00:56:35;;;;;;;12.47;6.10;;;21.40;74.10;;;;;;7371153;19;20717;-80
2022/06/05 00:59:07;;;;;;;12.65;6.90;;;21.30;73.50;;;;;;7369116;19;20263;-79
2022/06/05 01:01:36;;;;;;;15.32;6.80;;;21.30;73.50;;;;;;7368943;19;20010;-80
2022/06/05 01:04:05;;;;;;;13.15;6.35;;;21.30;73.60;;;;;;7388348;19;20300;-79
2022/06/05 01:06:34;;;;;;;11.70;6.38;;;21.30;73.90;;;;;;7370912;19;20045;-79
2022/06/05 01:09:03;;;;;;;11.57;5.85;;;21.30;73.80;;;;;;7366637;19;20023;-80
2022/06/05 01:11:40;;;;;;;11.90;6.07;;;21.30;73.60;;;;;;7371649;19;20102;-79
2022/06/05 01:14:20;;;;;;;9.40;5.90;;;21.30;73.50;;;;;;7366792;19;20011;-79
2022/06/05 01:17:01;;;;;;;16.30;5.60;;;21.30;73.50;;;;;;7371450;19;20031;-79
2022/06/05 01:19:42;;;;;;;10.13;6.00;;;21.30;73.60;;;;;;7368196;19;20328;-78
2022/06/05 01:22:53;;;;;;;14.48;6.47;;;21.30;73.80;;;;;;7371691;19;20033;-78
2022/06/05 01:25:44;;;;;;;9.77;6.25;;;21.30;73.40;;;;;;7368064;19;20113;-78
2022/06/05 01:28:16;;;;;;;10.57;6.03;;;21.30;73.00;;;;;;7367402;19;20026;-80
2022/06/05 01:30:51;;;;;;;12.02;6.68;;;21.20;72.90;;;;;;7390554;19;20473;-78
2022/06/05 01:33:25;;;;;;;14.27;6.75;;;21.20;73.30;;;;;;7370094;19;20338;-78
2022/06/05 01:36:05;;;;;;;10.93;6.70;;;21.20;73.20;;;;;;7364933;19;20078;-79
2022/06/05 01:38:43;;;;;;;16.75;7.45;;;21.20;73.50;;;;;;7369521;19;20038;-79
2022/06/05 01:41:18;;;;;;;12.27;7.15;;;21.20;73.50;;;;;;7369090;19;20014;-78
2022/06/05 01:43:53;;;;;;;16.13;7.50;;;21.20;73.50;;;;;;7375472;19;20048;-79
2022/06/05 01:46:29;;;;;;;14.05;7.55;;;21.20;73.50;;;;;;7378764;19;20090;-79
2022/06/05 01:49:04;;;;;;;13.80;7.57;;;21.20;73.50;;;;;;7395446;19;20019;-79
2022/06/05 01:51:40;;;;;;;11.65;7.20;;;21.20;73.70;;;;;;7375135;19;21842;-78
2022/06/05 01:54:13;;;;;;;14.80;7.93;;;21.20;73.80;;;;;;7375296;19;20011;-78
2022/06/05 01:56:49;;;;;;;12.02;8.25;;;21.20;73.60;;;;;;7375684;19;20045;-78
2022/06/05 01:59:23;;;;;;;14.52;7.43;;;21.20;73.50;;;;;;7376875;19;20030;-78
2022/06/05 02:01:56;;;;;;;36.13;8.80;;;21.20;73.70;;;;;;7376600;19;20018;-78
2022/06/05 02:04:33;;;;;;;14.45;9.45;;;21.20;73.50;;;;;;7375459;19;20038;-78
2022/06/05 02:07:09;;;;;;;22.05;8.90;;;21.20;73.20;;;;;;7399822;19;20098;-78
2022/06/05 02:09:41;;;;;;;17.52;8.45;;;21.10;73.10;;;;;;7374289;19;20442;-78
2022/06/05 02:12:13;;;;;;;11.57;8.65;;;21.00;72.90;;;;;;7374346;19;20014;-78
2022/06/05 02:14:42;;;;;;;14.20;8.38;;;21.00;73.30;;;;;;7373708;19;20106;-79
2022/06/05 02:17:12;;;;;;;14.63;9.48;;;20.90;73.50;;;;;;7378120;19;20160;-79
2022/06/05 02:19:41;;;;;;;13.20;9.27;;;20.90;73.70;;;;;;7376738;19;20031;-79
2022/06/05 02:22:15;;;;;;;15.35;8.20;;;20.90;73.80;;;;;;7373719;19;20018;-79
2022/06/05 02:24:44;;;;;;;13.93;8.00;;;20.90;73.80;;;;;;7391825;19;20473;-79
2022/06/05 02:27:16;;;;;;;13.60;7.57;;;20.90;73.80;;;;;;7369657;19;20420;-79
2022/06/05 02:29:46;;;;;;;10.93;7.55;;;20.90;74.00;;;;;;7372347;19;20056;-79
2022/06/05 02:32:28;;;;;;;11.13;7.07;;;20.90;73.90;;;;;;7371561;19;20091;-79
2022/06/05 02:35:13;;;;;;;11.68;7.70;;;21.00;73.90;;;;;;7375106;19;20484;-79
2022/06/05 02:37:57;;;;;;;11.93;7.85;;;20.90;73.70;;;;;;7374634;19;20019;-79
2022/06/05 02:40:34;;;;;;;17.42;8.73;;;21.00;73.70;;;;;;7373007;19;20635;-79
2022/06/05 02:43:14;;;;;;;15.30;8.73;;;20.90;73.20;;;;;;7392574;19;20050;-79
2022/06/05 02:45:55;;;;;;;19.17;10.38;;;20.70;73.30;;;;;;7374436;19;20018;-80
2022/06/05 02:48:31;;;;;;;20.60;10.63;;;20.70;73.70;;;;;;7373954;19;20015;-79
2022/06/05 02:51:08;;;;;;;15.43;10.75;;;20.60;74.80;;;;;;7370242;19;20043;-79
2022/06/05 02:53:51;;;;;;;13.27;8.90;;;20.60;74.00;;;;;;7371582;19;20018;-79
2022/06/05 02:56:24;;;;;;;14.43;8.90;;;20.60;74.40;;;;;;7373586;19;20021;-78
2022/06/05 02:58:58;;;;;;;13.80;8.50;;;20.70;74.40;;;;;;7372186;19;20812;-79
2022/06/05 03:04:12;;;;;;;13.23;8.65;;;20.80;74.30;;;;;;7371887;19;20015;-79
2022/06/05 03:06:46;;;;;;;17.63;9.23;;;20.80;74.10;;;;;;7394710;19;20355;-79
2022/06/05 03:09:16;;;;;;;16.52;8.25;;;20.80;73.30;;;;;;7372116;19;20023;-79
2022/06/05 03:11:47;;;;;;;12.93;8.48;;;20.80;72.80;;;;;;7373803;19;20018;-79
2022/06/05 03:14:20;;;;;;;16.05;9.00;;;20.80;72.70;;;;;;7371385;19;20021;-79
2022/06/05 03:16:52;;;;;;;20.65;10.27;;;20.70;72.80;;;;;;7369158;19;20010;-79
2022/06/05 03:19:23;;;;;;;19.85;10.43;;;20.70;73.10;;;;;;7370777;19;20461;-79
2022/06/05 03:21:54;;;;;;;14.02;9.48;;;20.60;73.40;;;;;;7394358;19;20023;-79
2022/06/05 03:24:26;;;;;;;19.27;10.13;;;20.60;73.60;;;;;;7371348;19;20050;-79
2022/06/05 03:26:59;;;;;;;15.00;9.45;;;20.40;73.70;;;;;;7371207;19;20014;-79
2022/06/05 03:29:32;;;;;;;14.52;10.32;;;20.30;74.20;;;;;;7372235;19;20018;-79
2022/06/05 03:32:02;;;;;;;15.68;9.07;;;20.30;74.40;;;;;;7369577;19;20007;-79
2022/06/05 03:34:32;;;;;;;14.60;9.00;;;20.30;74.40;;;;;;7371831;19;20022;-79
2022/06/05 03:37:04;;;;;;;13.23;8.77;;;20.40;74.60;;;;;;7390541;19;20006;-79
2022/06/05 03:39:35;;;;;;;22.88;8.95;;;20.40;74.60;;;;;;7372378;19;20015;-79
2022/06/05 03:42:06;;;;;;;11.88;9.05;;;20.50;74.60;;;;;;7369218;19;20014;-79
2022/06/05 03:44:42;;;;;;;;;;;20.60;74.40;;;;;;7370956;19;20312;-79
2022/06/05 03:47:15;;;;;;;12.75;8.93;;;20.70;74.40;;;;;;7366464;19;20305;-79
2022/06/05 03:49:47;;;;;;;13.23;8.68;;;20.70;73.80;;;;;;7370305;19;20018;-79
2022/06/05 03:52:20;;;;;;;16.40;9.70;;;20.70;74.00;;;;;;7370307;19;20026;-79
2022/06/05 03:54:50;;;;;;;17.02;8.25;;;20.70;73.80;;;;;;7392484;19;20015;-79
2022/06/05 03:57:21;;;;;;;13.82;8.32;;;20.70;73.60;;;;;;7371131;19;20010;-79
2022/06/05 03:59:56;;;;;;;21.63;9.47;;;20.70;73.80;;;;;;7371609;19;20454;-79
2022/06/05 04:02:27;;;;;;;17.25;8.95;;;20.70;73.90;;;;;;7369385;19;20101;-79
2022/06/05 04:05:01;;;;;;;12.13;8.07;;;20.80;73.80;;;;;;7370666;19;20025;-79
2022/06/05 04:07:31;;;;;;;12.93;8.07;;;20.80;73.70;;;;;;7362079;19;20022;-79
2022/06/05 04:10:03;;;;;;;13.27;8.68;;;20.80;73.40;;;;;;7391683;19;20032;-79
2022/06/05 04:12:32;;;;;;;16.23;8.73;;;20.80;73.40;;;;;;7368872;19;20014;-79
2022/06/05 04:15:09;;;;;;;12.45;8.50;;;20.80;73.40;;;;;;7366443;19;20022;-79
2022/06/05 04:17:42;;;;;;;18.80;8.70;;;20.80;73.40;;;;;;7366829;19;20533;-79
2022/06/05 04:20:15;;;;;;;15.85;8.68;;;20.80;73.30;;;;;;7368473;19;20107;-78
2022/06/05 04:22:47;;;;;;;14.07;8.00;;;20.90;73.40;;;;;;7369150;19;20022;-79
2022/06/05 04:25:18;;;;;;;12.48;8.15;;;20.80;73.40;;;;;;7367153;19;20032;-79
2022/06/05 04:27:50;;;;;;;11.80;8.43;;;20.80;73.30;;;;;;7388314;19;20018;-79
2022/06/05 04:30:25;;;;;;;13.30;8.50;;;20.80;73.00;;;;;;7362158;19;20025;-79
2022/06/05 04:32:59;;;;;;;12.70;7.63;;;20.80;73.10;;;;;;7371162;19;20461;-79
2022/06/05 04:35:29;;;;;;;11.77;7.80;;;20.80;73.30;;;;;;7370670;19;20018;-79
2022/06/05 04:38:00;;;;;;;17.05;8.55;;;20.80;73.40;;;;;;7366372;19;20623;-79
2022/06/05 04:40:34;;;;;;;13.50;7.65;;;20.80;73.60;;;;;;7367622;19;20046;-79
2022/06/05 04:43:04;;;;;;;11.38;7.35;;;20.90;73.40;;;;;;7394011;19;20336;-79
2022/06/05 04:45:39;;;;;;;11.23;7.75;;;20.90;73.40;;;;;;7363590;19;20024;-79
2022/06/05 04:48:10;;;;;;;11.25;7.30;;;20.90;73.60;;;;;;7368358;19;20019;-79
2022/06/05 04:50:41;;;;;;;12.20;7.53;;;20.90;73.60;;;;;;7369180;19;20026;-79
2022/06/05 04:53:13;;;;;;;12.85;8.40;;;21.00;73.40;;;;;;7368284;19;20035;-78
2022/06/05 04:55:45;;;;;;;15.25;8.43;;;21.00;73.10;;;;;;7364592;19;20002;-79
2022/06/05 04:58:16;;;;;;;16.95;8.73;;;21.00;73.10;;;;;;7368553;19;20057;-79
2022/06/05 05:00:50;;;;;;;22.00;8.38;;;21.00;72.80;;;;;;7388129;19;20032;-79
2022/06/05 05:03:19;;;;;;;14.00;7.50;;;21.00;73.00;;;;;;7367738;19;20015;-79
2022/06/05 05:05:53;;;;;;;13.65;7.88;;;21.00;73.40;;;;;;7368333;19;20028;-79
2022/06/05 05:08:28;;;;;;;12.70;7.70;;;21.00;73.80;;;;;;7367018;19;20019;-79
2022/06/05 05:11:00;;;;;;;14.20;8.00;;;21.10;74.10;;;;;;7369861;19;20011;-79
2022/06/05 05:13:30;;;;;;;10.40;7.13;;;21.20;74.10;;;;;;7366031;19;20020;-79
2022/06/05 05:16:06;;;;;;;13.65;7.00;;;21.10;73.00;;;;;;7390472;19;20027;-79
2022/06/05 05:18:37;;;;;;;9.38;6.70;;;21.10;73.30;;;;;;7376152;19;20035;-79
2022/06/05 05:21:11;;;;;;;11.95;7.13;;;21.10;73.50;;;;;;7376938;19;20029;-79
2022/06/05 05:23:41;;;;;;;20.98;7.95;;;21.10;73.80;;;;;;7371499;19;20414;-79
2022/06/05 05:26:15;;;;;;;12.52;7.38;;;21.10;73.80;;;;;;7372490;19;20490;-79
2022/06/05 05:28:46;;;;;;;13.60;6.80;;;21.10;74.00;;;;;;7371869;19;20014;-79
2022/06/05 05:31:23;;;;;;;14.95;6.90;;;21.10;74.30;;;;;;7370702;19;20458;-79
2022/06/05 05:33:54;;;;;;;7.18;5.00;;;21.20;74.50;;;;;;7394542;19;20719;-79
2022/06/05 05:36:28;;;;;;;11.63;5.15;;;21.20;74.30;;;;;;7371883;19;20052;-79
2022/06/05 05:44:26;;;;;;;8.63;4.40;;;21.30;73.90;;;;;;7376041;19;20130;-78
2022/06/05 05:47:02;;;;;;;6.57;4.30;;;21.40;74.10;;;;;;7377862;19;20029;-79
2022/06/05 05:49:33;;;;;;;8.73;4.70;;;21.40;74.10;;;;;;7376308;19;20042;-78
2022/06/05 05:52:05;;;;;;;18.17;4.55;;;21.40;73.50;;;;;;7401863;19;20029;-79
2022/06/05 05:54:36;;;;;;;8.38;4.53;;;21.40;73.60;;;;;;7376319;19;20330;-79
2022/06/05 05:57:08;;;;;;;9.88;4.88;;;21.50;73.80;;;;;;7372210;19;20487;-78
2022/06/05 05:59:43;;;;;;;7.38;4.85;;;21.50;73.90;;;;;;7373829;19;20015;-79
2022/06/05 06:02:21;;;;;;;7.75;4.53;;;21.50;74.10;;;;;;7372141;19;20022;-79
2022/06/05 06:04:55;;;;;;;9.82;4.45;;;21.50;74.20;;;;;;7374721;19;20094;-78
2022/06/05 06:07:26;;;;;;;7.32;4.20;;;21.60;74.20;;;;;;7369431;19;20035;-79
2022/06/05 06:09:58;;;;;;;9.35;4.28;;;21.60;73.80;;;;;;7395681;19;20015;-79
2022/06/05 06:12:31;;;;;;;7.53;4.32;;;21.60;73.70;;;;;;7373041;19;20015;-79
2022/06/05 06:15:04;;;;;;;6.90;3.88;;;21.70;73.50;;;;;;7375102;19;20011;-79
2022/06/05 06:17:38;;;;;;;10.32;4.10;;;21.70;73.50;;;;;;7373688;19;20011;-79
2022/06/05 06:20:12;;;;;;;7.40;4.07;;;21.70;73.50;;;;;;7369324;19;20026;-79
2022/06/05 06:22:45;;;;;;;9.52;4.07;;;21.70;73.40;;;;;;7375778;19;20111;-79
2022/06/05 06:25:16;;;;;;;7.95;3.83;;;21.80;73.40;;;;;;7373337;19;20007;-79
2022/06/05 06:27:47;;;;;;;7.30;4.13;;;21.80;73.50;;;;;;7394541;19;20015;-79
2022/06/05 06:30:18;;;;;;;3.95;3.53;;;21.80;73.60;;;;;;7373743;19;20011;-78
2022/06/05 06:32:59;;;;;;;8.35;3.90;;;21.80;73.60;;;;;;7375220;19;20021;-79
2022/06/05 06:35:29;;;;;;;8.63;3.95;;;21.80;73.80;;;;;;7374383;19;20023;-79
2022/06/05 06:37:59;;;;;;;5.55;4.07;;;21.90;73.90;;;;;;7372381;19;20556;-80
2022/06/05 06:40:30;;;;;;;5.90;3.95;;;21.90;73.90;;;;;;7372554;19;20412;-79
2022/06/05 06:43:05;;;;;;;7.05;4.00;;;21.90;73.90;;;;;;7393279;19;20074;-79
2022/06/05 06:45:38;;;;;;;5.88;3.47;;;21.90;73.60;;;;;;7368894;19;20015;-79
2022/06/05 06:48:25;;;;;;;6.05;3.67;;;22.00;73.30;;;;;;7366925;19;20025;-79
2022/06/05 06:50:58;;;;;;;11.80;4.10;;;22.00;73.30;;;;;;7366674;19;20042;-79
2022/06/05 06:53:32;;;;;;;8.05;4.10;;;22.10;73.60;;;;;;7372940;19;20010;-78
2022/06/05 06:56:12;;;;;;;6.30;3.85;;;22.20;73.90;;;;;;7371148;19;20015;-78
2022/06/05 06:58:46;;;;;;;6.22;3.53;;;22.10;74.00;;;;;;7372309;19;20334;-78
2022/06/05 07:01:16;;;;;;;8.73;3.20;;;22.20;73.80;;;;;;7368032;19;20042;-79
2022/06/05 07:03:49;;;;;;;8.07;3.30;;;22.30;73.10;;;;;;7392027;19;20014;-79
2022/06/05 07:06:20;;;;;;;7.22;3.60;;;22.30;72.60;;;;;;7368038;19;20338;-79
2022/06/05 07:08:53;;;;;;;5.97;3.38;;;22.20;72.70;;;;;;7373352;19;20047;-79
2022/06/05 07:11:23;;;;;;;8.57;3.65;;;22.20;73.00;;;;;;7373504;19;20059;-79
2022/06/05 07:13:56;;;;;;;6.53;3.28;;;22.30;73.40;;;;;;7373829;19;20018;-79
2022/06/05 07:16:25;;;;;;;6.72;3.08;;;22.30;72.50;;;;;;7369012;19;20034;-79
2022/06/05 07:18:57;;;;;;;5.88;2.97;;;22.40;72.40;;;;;;7391194;19;20086;-78
2022/06/05 07:21:30;;;;;;;8.25;3.13;;;22.50;72.50;;;;;;7371612;19;20017;-79
2022/06/05 07:24:02;;;;;;;11.95;3.60;;;22.50;72.80;;;;;;7373564;19;20074;-79
2022/06/05 07:26:48;;;;;;;4.88;3.05;;;22.60;72.90;;;;;;7367638;19;20584;-78
2022/06/05 07:29:25;;;;;;;4.38;2.63;;;22.70;71.90;;;;;;7371984;19;20058;-79
2022/06/05 07:31:57;;;;;;;6.57;3.10;;;22.70;71.70;;;;;;7371873;19;20019;-78
2022/06/05 07:35:09;;;;;;;6.10;2.90;;;22.80;72.20;;;;;;7370547;19;20442;-78
2022/06/05 07:37:54;;;;;;;8.35;3.20;;;22.80;72.90;;;;;;7366655;19;20014;-78
2022/06/05 07:40:32;;;;;;;5.35;3.00;;;22.80;73.30;;;;;;7366895;19;20022;-79
2022/06/05 07:43:05;;;;;;;4.68;2.80;;;23.00;73.30;;;;;;7392761;19;20032;-78
2022/06/05 07:45:48;;;;;;;7.13;3.30;;;23.00;72.90;;;;;;7375259;19;20014;-85
2022/06/05 07:48:21;;;;;;;4.28;3.22;;;23.20;71.90;;;;;;7374437;19;20022;-82
2022/06/05 07:56:30;;;;;;;46.13;33.25;;;23.40;69.70;;;;;;7369975;19;20073;-77
2022/06/05 07:59:04;;;;;;;16.65;11.43;;;23.40;67.90;;;;;;7367359;19;20018;-78
2022/06/05 08:01:37;;;;;;;5.63;2.67;;;23.30;67.40;;;;;;7359618;19;20099;-77
2022/06/05 08:04:20;;;;;;;6.22;1.92;;;23.30;66.60;;;;;;7387769;19;20330;-77
2022/06/05 08:07:02;;;;;;;4.15;2.10;;;23.30;66.60;;;;;;7369237;19;20011;-77
2022/06/05 08:09:40;;;;;;;4.70;2.03;;;23.40;66.70;;;;;;7361408;19;20051;-77
2022/06/05 08:12:18;;;;;;;3.47;1.90;;;23.40;67.60;;;;;;7369137;19;20011;-77
2022/06/05 08:14:51;;;;;;;4.35;2.03;;;23.30;66.80;;;;;;7371006;19;20014;-78
2022/06/05 08:17:32;;;;;;;3.50;1.85;;;23.10;67.60;;;;;;7361765;19;20042;-77
2022/06/05 08:20:06;;;;;;;2.78;1.98;;;23.10;68.20;;;;;;7368805;19;20045;-77
2022/06/05 08:22:41;;;;;;;2.55;1.73;;;23.10;68.50;;;;;;7364869;19;20426;-77
2022/06/05 08:25:13;;;;;;;3.70;2.20;;;23.10;68.00;;;;;;7371676;19;20095;-77
2022/06/05 08:27:45;;;;;;;7.20;2.30;;;23.10;68.40;;;;;;7391668;19;20184;-77
2022/06/05 08:30:19;;;;;;;3.00;1.92;;;22.80;68.50;;;;;;7367017;19;20803;-77
2022/06/05 08:32:49;;;;;;;4.47;2.40;;;22.70;69.00;;;;;;7354959;19;20449;-77
2022/06/05 08:35:22;;;;;;;3.88;2.00;;;22.70;69.50;;;;;;7363504;19;20424;-77
2022/06/05 08:43:49;;;;;;;3.72;2.25;;;22.70;70.00;;;;;;7370352;19;20018;-77
2022/06/05 08:46:29;;;;;;;4.82;2.53;;;22.70;69.80;;;;;;7365837;19;20090;-77
2022/06/05 08:49:05;;;;;;;4.82;2.20;;;22.70;69.80;;;;;;7367678;19;20018;-77
2022/06/05 08:51:51;;;;;;;8.15;2.95;;;22.70;69.90;;;;;;7366590;19;20034;-76
2022/06/05 08:54:38;;;;;;;3.92;3.10;;;22.70;69.70;;;;;;7369567;19;20039;-77
2022/06/05 08:57:28;;;;;;;6.38;3.03;;;22.50;69.70;;;;;;7357740;19;20018;-77
2022/06/05 09:00:17;;;;;;;8.13;3.30;;;22.40;70.10;;;;;;7365038;19;20426;-77
2022/06/05 09:03:02;;;;;;;10.68;3.38;;;22.20;71.00;;;;;;7352930;19;20010;-78
2022/06/05 09:05:40;;;;;;;5.32;3.10;;;22.20;71.40;;;;;;7368233;19;20033;-76
2022/06/05 09:08:17;;;;;;;4.95;3.33;;;22.30;71.70;;;;;;7368351;19;20021;-77
2022/06/05 09:11:02;;;;;;;10.43;4.00;;;22.20;72.30;;;;;;7390997;19;20014;-77
2022/06/05 09:13:45;;;;;;;4.05;3.50;;;22.00;72.70;;;;;;7370171;19;20065;-77
2022/06/05 09:16:35;;;;;;;7.45;3.83;;;22.10;72.50;;;;;;7359219;19;20072;-77
2022/06/05 09:19:17;;;;;;;7.88;3.72;;;22.20;72.10;;;;;;7370246;19;20383;-77
2022/06/05 09:21:57;;;;;;;8.95;4.07;;;22.10;72.20;;;;;;7361271;19;20482;-77
2022/06/05 09:24:47;;;;;;;5.97;3.97;;;22.10;71.90;;;;;;7368534;19;20512;-77
2022/06/05 09:27:31;;;;;;;6.18;4.00;;;22.10;71.80;;;;;;7369461;19;20014;-76
2022/06/05 09:30:06;;;;;;;5.72;4.00;;;22.00;72.10;;;;;;7369196;19;20037;-77
2022/06/05 09:32:52;;;;;;;9.05;4.05;;;22.00;72.60;;;;;;7367813;19;20035;-76
2022/06/05 09:35:27;;;;;;;8.60;3.90;;;22.00;72.40;;;;;;7367519;19;20006;-77
2022/06/05 09:38:01;;;;;;;8.05;4.90;;;22.10;72.40;;;;;;7388132;19;20022;-78
2022/06/05 09:40:37;;;;;;;9.68;5.00;;;22.00;72.40;;;;;;7367813;19;20018;-78
2022/06/05 09:43:32;;;;;;;9.30;4.90;;;22.00;72.70;;;;;;7368699;19;20018;-77
2022/06/05 09:46:20;;;;;;;14.30;5.18;;;21.80;72.90;;;;;;7366807;19;20021;-77
2022/06/05 09:48:57;;;;;;;9.02;5.55;;;21.90;72.70;;;;;;7369288;19;20723;-77
2022/06/05 09:51:29;;;;;;;10.82;5.47;;;22.00;72.20;;;;;;7367692;19;20481;-77
2022/06/05 09:54:04;;;;;;;10.48;5.18;;;21.90;72.60;;;;;;7366252;19;20039;-77
2022/06/05 09:59:38;;;;;;;6.95;5.35;;;21.90;72.20;;;;;;7367553;19;20018;-77
2022/06/05 10:02:12;;;;;;;7.07;5.10;;;22.00;71.60;;;;;;7366899;19;20021;-76
2022/06/05 10:04:44;;;;;;;12.18;5.78;;;22.10;71.30;;;;;;7391144;19;20038;-77
2022/06/05 10:07:22;;;;;;;10.75;5.78;;;22.20;70.90;;;;;;7372370;19;20039;-77
2022/06/05 10:09:53;;;;;;;11.05;5.20;;;22.00;71.30;;;;;;7371480;19;20010;-77
2022/06/05 10:12:30;;;;;;;8.27;4.95;;;22.00;71.40;;;;;;7371616;19;20011;-77
2022/06/05 10:15:05;;;;;;;8.80;4.95;;;21.90;71.50;;;;;;7371528;19;20081;-77
2022/06/05 10:17:51;;;;;;;8.52;5.20;;;22.00;71.50;;;;;;7371325;19;20039;-77
2022/06/05 10:20:39;;;;;;;5.80;5.20;;;22.10;71.30;;;;;;7369880;19;20022;-77
2022/06/05 10:23:23;;;;;;;12.88;5.10;;;22.00;70.90;;;;;;7371642;19;20589;-77
2022/06/05 10:26:00;;;;;;;10.23;5.63;;;21.80;71.10;;;;;;7393795;19;20017;-77
2022/06/05 10:28:33;;;;;;;6.70;5.15;;;22.00;70.90;;;;;;7371450;19;20094;-76
2022/06/05 10:31:09;;;;;;;16.02;9.95;;;22.00;71.20;;;;;;7370379;19;20018;-78
2022/06/05 10:33:53;;;;;;;10.10;6.35;;;21.90;71.30;;;;;;7370731;19;20017;-78
2022/06/05 10:36:26;;;;;;;6.82;5.47;;;22.10;70.60;;;;;;7368114;19;20010;-76
2022/06/05 10:39:03;;;;;;;7.85;5.15;;;22.20;70.50;;;;;;7372531;19;20432;-76
2022/06/05 10:41:41;;;;;;;5.88;5.18;;;22.30;69.70;;;;;;7372038;19;20025;-76
2022/06/05 10:44:23;;;;;;;5.95;4.95;;;22.40;69.60;;;;;;7370428;19;20536;-77
2022/06/05 10:47:09;;;;;;;6.85;5.32;;;22.30;69.60;;;;;;7392080;19;20377;-77
2022/06/05 10:49:49;;;;;;;6.10;4.85;;;22.40;69.70;;;;;;7371911;19;20462;-77
2022/06/05 10:52:29;;;;;;;9.27;5.15;;;22.60;69.40;;;;;;7368109;19;20039;-77
2022/06/05 10:55:10;;;;;;;12.05;5.50;;;22.80;68.00;;;;;;7369900;19;20184;-77
2022/06/05 10:57:45;;;;;;;7.22;5.25;;;22.70;67.60;;;;;;7369977;19;20014;-77
2022/06/05 11:00:22;;;;;;;10.00;5.63;;;22.60;68.30;;;;;;7368196;19;20090;-78
2022/06/05 11:03:14;;;;;;;7.30;5.15;;;22.30;68.80;;;;;;7369340;19;20014;-77
2022/06/05 11:05:59;;;;;;;10.25;6.10;;;22.10;69.90;;;;;;7368800;19;20018;-77
2022/06/05 11:08:42;;;;;;;8.38;5.45;;;22.20;69.60;;;;;;7369027;19;20023;-78
2022/06/05 11:14:11;;;;;;;8.50;6.40;;;22.30;69.50;;;;;;7370937;19;20805;-77
2022/06/05 11:16:44;;;;;;;;;;;22.20;69.10;;;;;;7390044;19;20098;-77
2022/06/05 11:19:24;;;;;;;7.82;6.78;;;22.30;70.00;;;;;;7371320;19;19919;-77
2022/06/05 11:21:54;;;;;;;6.77;5.83;;;22.40;69.20;;;;;;7371398;19;20010;-77
2022/06/05 11:24:30;;;;;;;16.52;6.57;;;22.40;68.80;;;;;;7369249;19;20251;-77
2022/06/05 11:27:09;;;;;;;8.65;7.07;;;22.30;69.50;;;;;;7367095;19;20082;-77
2022/06/05 11:29:49;;;;;;;11.80;7.50;;;22.40;67.70;;;;;;7367961;19;20018;-76
2022/06/05 11:32:38;;;;;;;11.00;7.90;;;22.20;68.10;;;;;;7372339;19;20007;-77
2022/06/05 11:35:22;;;;;;;12.35;7.88;;;22.30;68.30;;;;;;7368163;19;20050;-77
2022/06/05 11:38:01;;;;;;;11.63;6.93;;;22.30;67.80;;;;;;7390181;19;20022;-77
2022/06/05 11:40:46;;;;;;;9.50;6.85;;;22.40;68.20;;;;;;7370241;19;20022;-77
2022/06/05 11:43:35;;;;;;;12.13;7.15;;;22.80;67.50;;;;;;7370684;19;20347;-77
2022/06/05 11:46:13;;;;;;;7.93;7.05;;;22.90;66.40;;;;;;7363223;19;20440;-77
2022/06/05 11:48:48;;;;;;;9.52;6.65;;;23.00;65.90;;;;;;7372314;19;20385;-77
2022/06/05 11:51:26;;;;;;;12.23;7.07;;;23.10;65.80;;;;;;7366168;19;20023;-77
2022/06/05 11:54:09;;;;;;;8.40;6.30;;;23.20;63.80;;;;;;7370908;19;20015;-76
2022/06/05 11:56:49;;;;;;;9.05;6.00;;;23.20;64.20;;;;;;7370066;19;20018;-77
2022/06/05 11:59:29;;;;;;;8.15;6.18;;;23.30;63.80;;;;;;7363871;19;20011;-76
2022/06/05 12:02:03;;;;;;;9.50;6.63;;;23.20;64.10;;;;;;7365277;19;20043;-78
2022/06/05 12:04:48;;;;;;;12.43;5.68;;;23.00;64.50;;;;;;7384447;19;20454;-78
2022/06/05 12:07:21;;;;;;;11.77;6.13;;;23.10;65.40;;;;;;7355469;19;20069;-78
2022/06/05 12:09:53;;;;;;;8.15;6.25;;;23.10;64.70;;;;;;7370488;19;20039;-78
2022/06/05 12:12:27;;;;;;;8.52;6.53;;;23.00;64.20;;;;;;7370495;19;20010;-77
2022/06/05 12:15:07;;;;;;;13.82;6.00;;;23.10;63.80;;;;;;7371412;19;20039;-77
2022/06/05 12:17:42;;;;;;;8.45;5.55;;;23.10;64.20;;;;;;7368830;19;20014;-77
2022/06/05 12:20:19;;;;;;;10.13;5.57;;;23.10;63.30;;;;;;7371932;19;20090;-77
2022/06/05 12:22:56;;;;;;;7.90;6.07;;;23.10;64.10;;;;;;7388841;19;20026;-78
2022/06/05 12:25:31;;;;;;;6.25;5.30;;;23.10;63.80;;;;;;7370082;19;20011;-77
2022/06/05 12:28:05;;;;;;;8.52;5.55;;;23.20;63.70;;;;;;7365488;19;20026;-77
2022/06/05 12:30:39;;;;;;;7.95;5.70;;;23.40;63.30;;;;;;7367809;19;20076;-77
2022/06/05 12:33:17;;;;;;;10.15;5.70;;;23.50;62.60;;;;;;7368983;19;20089;-77
2022/06/05 12:35:49;;;;;;;14.18;5.72;;;23.70;63.20;;;;;;7369317;19;20453;-77
2022/06/05 12:38:35;;;;;;;12.48;5.85;;;23.80;61.00;;;;;;7367639;19;20004;-77
2022/06/05 12:41:12;;;;;;;11.23;5.45;;;23.60;61.60;;;;;;7367212;19;20031;-77
2022/06/05 12:43:56;;;;;;;7.20;5.82;;;23.60;63.30;;;;;;7392755;19;20018;-77
2022/06/05 12:46:33;;;;;;;9.90;5.85;;;23.60;62.20;;;;;;7368650;19;20023;-78
2022/06/05 12:49:15;;;;;;;8.80;5.50;;;23.60;62.80;;;;;;7370872;19;20037;-78
2022/06/05 12:51:53;;;;;;;12.65;5.90;;;23.70;62.20;;;;;;7367171;19;20090;-78
2022/06/05 12:54:34;;;;;;;7.57;5.68;;;23.60;61.50;;;;;;7367348;19;20078;-78
2022/06/05 12:57:11;;;;;;;7.65;5.47;;;23.60;61.00;;;;;;7369562;19;20098;-77
2022/06/05 12:59:48;;;;;;;11.65;5.35;;;23.50;61.60;;;;;;7367562;19;20015;-77
2022/06/05 13:02:29;;;;;;;9.52;5.72;;;23.40;63.20;;;;;;7367788;19;20011;-77
2022/06/05 13:05:04;;;;;;;6.43;5.05;;;23.40;63.20;;;;;;7369604;19;20018;-77
2022/06/05 13:07:41;;;;;;;6.32;4.63;;;23.60;61.30;;;;;;7387322;19;20082;-77
2022/06/05 13:10:24;;;;;;;4.50;4.05;;;23.90;60.90;;;;;;7369509;19;20014;-77
2022/06/05 13:13:00;;;;;;;9.15;4.20;;;23.90;59.50;;;;;;7370239;19;20042;-77
2022/06/05 13:15:34;;;;;;;7.10;4.45;;;24.00;60.50;;;;;;7368175;19;20045;-77
2022/06/05 13:18:20;;;;;;;6.15;3.90;;;24.10;58.90;;;;;;7368950;19;20568;-77
2022/06/05 13:21:02;;;;;;;4.85;4.18;;;24.00;58.40;;;;;;7369921;19;20019;-76
2022/06/05 13:23:36;;;;;;;4.68;3.90;;;24.10;58.60;;;;;;7367635;19;20038;-77
2022/06/05 13:26:16;;;;;;;6.60;3.47;;;24.10;58.80;;;;;;7364945;19;20452;-77
2022/06/05 13:28:52;;;;;;;3.70;3.30;;;24.10;58.40;;;;;;7388340;19;20015;-77
2022/06/05 13:31:41;;;;;;;7.20;4.07;;;23.90;59.00;;;;;;7367694;19;20021;-78
2022/06/05 13:34:21;;;;;;;5.32;4.03;;;23.80;59.30;;;;;;7368021;19;20074;-77
2022/06/05 13:36:59;;;;;;;25.13;14.65;;;23.90;58.60;;;;;;7367806;19;20025;-77
2022/06/05 13:40:01;;;;;;;10.38;4.10;;;23.90;59.00;;;;;;7326387;19;20022;-76
2022/06/05 13:42:37;;;;;;;10.02;3.70;;;24.20;58.80;;;;;;7373738;19;20018;-76
2022/06/05 13:48:13;;;;;;;6.85;3.47;;;24.40;58.70;;;;;;7373879;19;20010;-80
2022/06/05 13:50:55;;;;;;;3.40;3.10;;;24.40;58.20;;;;;;7377020;19;20113;-77
2022/06/05 13:53:28;;;;;;;4.18;3.20;;;24.10;58.40;;;;;;7364070;19;20018;-79
2022/06/05 13:56:09;;;;;;;6.25;3.45;;;24.20;57.90;;;;;;7384749;19;20035;-77